Time;durP1;ratioP1;P1;durP2;ratioP2;P2;SDS_P1;SDS_P2;PMS_P1;PMS_P2;Temp;Humidity;BMP_temperature;BMP_pressure;BME280_temperature;BME280_humidity;BME280_pressure;Samples;Min_cycle;Max_cycle;Signal;HPM_P1;HPM_P2
2023/03/30 00:00:57;;;;;;;13.07;8.65;;;;;;;9.00;51.36;99594.69;4256326;33;33265;-90
2023/03/30 00:03:26;;;;;;;13.88;8.48;;;;;;;8.77;52.26;99598.38;4247255;33;34786;-86
2023/03/30 00:05:57;;;;;;;15.80;8.68;;;;;;;8.82;51.96;99596.78;4255035;33;34161;-85
2023/03/30 00:08:27;;;;;;;12.77;8.13;;;;;;;9.04;51.32;99597.34;4250723;33;33293;-88
2023/03/30 00:11:10;;;;;;;13.40;8.38;;;;;;;8.93;51.21;99591.91;4258860;33;33761;-84
2023/03/30 00:13:38;;;;;;;15.02;8.95;;;;;;;9.13;50.87;99593.31;4265371;33;34101;-84
2023/03/30 00:16:08;;;;;;;14.15;8.80;;;;;;;9.06;51.09;99591.41;4245797;33;34057;-88
2023/03/30 00:18:38;;;;;;;13.48;8.70;;;;;;;9.28;50.63;99585.06;4233506;33;33954;-85
2023/03/30 00:21:08;;;;;;;18.08;8.95;;;;;;;9.01;51.07;99583.50;4261720;33;33639;-84
2023/03/30 00:23:37;;;;;;;13.93;7.80;;;;;;;8.91;51.70;99578.94;4259297;33;33980;-85
2023/03/30 00:26:06;;;;;;;14.48;8.60;;;;;;;9.02;51.57;99582.69;4266592;33;33822;-84
2023/03/30 00:28:34;;;;;;;13.85;8.00;;;;;;;9.07;51.61;99584.50;4246365;33;34072;-84
2023/03/30 00:31:01;;;;;;;12.15;7.57;;;;;;;9.16;51.54;99579.53;4262882;33;33614;-93
2023/03/30 00:33:30;;;;;;;12.40;8.23;;;;;;;9.03;51.70;99578.38;4271068;33;33793;-84
2023/03/30 00:36:14;;;;;;;12.25;7.97;;;;;;;9.12;51.56;99573.41;4246327;33;34492;-85
2023/03/30 00:38:42;;;;;;;13.32;8.43;;;;;;;9.16;51.19;99571.78;4246083;33;33332;-90
2023/03/30 00:41:11;;;;;;;14.25;8.02;;;;;;;9.07;51.29;99572.44;4246637;33;34350;-90
2023/03/30 00:43:59;;;;;;;14.02;8.77;;;;;;;9.08;51.26;99575.91;4246471;33;33785;-90
2023/03/30 00:46:29;;;;;;;14.87;8.50;;;;;;;9.18;51.09;99571.00;4246492;33;34172;-89
2023/03/30 00:49:02;;;;;;;15.20;8.73;;;;;;;9.26;50.95;99566.87;4259299;33;33968;-87
2023/03/30 00:51:34;;;;;;;11.18;7.90;;;;;;;9.31;50.67;99566.97;4247758;33;33658;-84
2023/03/30 00:54:14;;;;;;;15.00;8.70;;;;;;;9.18;51.18;99564.94;4257849;33;32393;-85
2023/03/30 00:56:42;;;;;;;12.93;8.10;;;;;;;9.23;51.27;99553.88;4258912;33;34159;-91
2023/03/30 00:59:10;;;;;;;14.52;8.10;;;;;;;8.99;51.96;99559.31;4273291;33;34219;-85
2023/03/30 01:01:39;;;;;;;14.32;8.75;;;;;;;9.08;51.86;99556.06;4259130;33;34634;-84
2023/03/30 01:04:08;;;;;;;12.77;7.90;;;;;;;9.14;51.34;99551.06;4260307;33;34627;-88
2023/03/30 01:06:38;;;;;;;13.55;7.80;;;;;;;9.07;50.78;99548.28;4237039;33;34181;-88
2023/03/30 01:09:07;;;;;;;13.93;7.68;;;;;;;9.15;50.57;99542.47;4268490;33;34192;-87
2023/03/30 01:11:35;;;;;;;14.38;8.07;;;;;;;9.27;50.30;99535.00;4265812;33;34127;-83
2023/03/30 01:14:05;;;;;;;11.50;7.37;;;;;;;9.12;50.61;99531.16;4245812;33;33067;-92
2023/03/30 01:16:54;;;;;;;14.75;8.57;;;;;;;9.13;50.62;99520.87;4246037;33;33741;-85
2023/03/30 01:19:47;;;;;;;13.77;8.20;;;;;;;9.07;51.07;99528.47;4270939;33;34149;-92
2023/03/30 01:22:35;;;;;;;14.43;8.85;;;;;;;9.09;51.05;99524.22;4261186;33;33698;-90
2023/03/30 01:25:37;;;;;;;17.52;9.75;;;;;;;8.97;51.40;99519.59;4251685;33;34219;-90
2023/03/30 01:28:08;;;;;;;13.70;8.52;;;;;;;9.02;51.63;99514.56;4255837;33;33982;-84
2023/03/30 01:30:52;;;;;;;14.15;9.18;;;;;;;8.85;51.79;99510.69;4271910;33;34322;-85
2023/03/30 01:33:38;;;;;;;14.05;9.50;;;;;;;9.04;51.16;99499.06;4264880;33;33586;-85
2023/03/30 01:36:25;;;;;;;16.70;9.52;;;;;;;8.93;51.19;99510.03;4272816;33;33766;-83
2023/03/30 01:39:22;;;;;;;15.93;8.65;;;;;;;8.77;51.27;99505.31;4265145;33;33183;-85
2023/03/30 01:41:54;;;;;;;14.85;8.48;;;;;;;8.70;51.49;99506.84;4272108;33;34961;-85
2023/03/30 01:45:00;;;;;;;15.13;9.48;;;;;;;8.61;51.76;99498.87;4258478;33;32819;-85
2023/03/30 01:47:50;;;;;;;14.17;9.33;;;;;;;8.63;51.72;99504.94;4214273;34;34506;-88
2023/03/30 01:50:25;;;;;;;15.20;9.68;;;;;;;8.71;51.71;99498.28;4200413;34;34525;-85
2023/03/30 01:53:22;;;;;;;17.15;9.20;;;;;;;8.82;51.54;99506.28;4244860;33;34056;-85
2023/03/30 01:55:54;;;;;;;15.82;8.77;;;;;;;8.67;51.69;99501.59;4248389;33;32805;-85
2023/03/30 01:58:33;;;;;;;14.80;9.05;;;;;;;8.38;52.71;99494.81;4248243;33;33771;-90
2023/03/30 02:01:01;;;;;;;14.43;9.38;;;;;;;8.58;52.05;99503.97;4259036;33;34754;-85
2023/03/30 02:03:31;;;;;;;15.05;9.73;;;;;;;8.31;52.46;99496.31;4245986;33;33964;-92
2023/03/30 02:06:10;;;;;;;17.37;9.50;;;;;;;8.44;52.54;99488.09;4246093;33;34557;-87
2023/03/30 02:08:39;;;;;;;14.43;9.68;;;;;;;8.40;52.64;99493.16;4246192;33;33957;-89
2023/03/30 02:11:06;;;;;;;16.65;9.73;;;;;;;8.23;53.21;99490.97;4245968;33;33781;-85
2023/03/30 02:13:35;;;;;;;16.67;9.77;;;;;;;8.03;53.96;99487.84;4246145;33;33863;-90
2023/03/30 02:16:14;;;;;;;14.48;10.07;;;;;;;8.24;53.54;99484.09;4253038;33;33695;-83
2023/03/30 02:18:43;;;;;;;14.55;9.55;;;;;;;8.26;53.41;99483.28;4261863;33;33960;-90
2023/03/30 02:21:11;;;;;;;18.12;10.95;;;;;;;8.18;53.56;99471.88;4245976;33;34248;-85
2023/03/30 02:23:41;;;;;;;16.60;9.68;;;;;;;8.02;54.28;99465.41;4245850;33;34170;-89
2023/03/30 02:26:10;;;;;;;16.30;10.10;;;;;;;8.06;54.25;99468.94;4253518;33;34887;-86
2023/03/30 02:28:38;;;;;;;16.12;10.05;;;;;;;8.15;53.94;99461.47;4259530;33;33909;-85
2023/03/30 02:31:11;;;;;;;15.55;9.20;;;;;;;8.19;53.44;99465.88;4258822;33;33833;-86
2023/03/30 02:33:55;;;;;;;12.88;8.30;;;;;;;8.05;53.72;99474.94;4254119;33;33937;-86
2023/03/30 02:37:14;;;;;;;13.30;8.30;;;;;;;8.08;53.46;99475.03;4261580;33;33678;-84
2023/03/30 02:40:12;;;;;;;15.57;8.90;;;;;;;7.91;53.41;99463.34;4182869;34;34627;-84
2023/03/30 02:42:48;;;;;;;14.50;9.00;;;;;;;8.09;53.58;99483.66;4263826;33;34863;-85
2023/03/30 02:45:23;;;;;;;;;;;;;;;8.22;53.55;99476.31;4246858;33;33872;-85
2023/03/30 02:48:02;;;;;;;13.48;8.40;;;;;;;8.33;53.06;99471.41;4268332;33;33239;-83
2023/03/30 02:50:33;;;;;;;14.45;8.32;;;;;;;7.97;53.61;99460.97;4246116;33;33819;-85
2023/03/30 02:53:23;;;;;;;12.30;8.13;;;;;;;8.10;53.57;99468.19;4245941;33;34084;-84
2023/03/30 02:55:59;;;;;;;14.85;8.70;;;;;;;8.27;53.73;99471.25;4234270;33;35448;-88
2023/03/30 02:58:41;;;;;;;12.25;7.18;;;;;;;8.10;54.36;99459.59;4270151;33;33495;-90
2023/03/30 03:01:35;;;;;;;12.40;7.90;;;;;;;8.26;53.87;99472.09;4259902;33;34600;-89
2023/03/30 03:04:04;;;;;;;13.75;7.93;;;;;;;8.32;53.74;99476.53;4241932;33;34344;-89
2023/03/30 03:06:33;;;;;;;13.38;7.57;;;;;;;8.09;54.68;99479.38;4234891;33;34175;-87
2023/03/30 03:09:00;;;;;;;12.60;7.78;;;;;;;8.16;54.44;99481.28;4257414;33;32769;-86
2023/03/30 03:11:28;;;;;;;12.15;8.40;;;;;;;7.97;54.32;99473.88;4258317;33;34738;-86
2023/03/30 03:13:56;;;;;;;14.13;9.45;;;;;;;8.02;54.15;99464.53;4262469;33;34135;-84
2023/03/30 03:16:25;;;;;;;14.18;9.48;;;;;;;7.89;54.50;99472.78;4272698;33;34226;-89
2023/03/30 03:18:54;;;;;;;12.65;8.55;;;;;;;8.28;54.05;99480.75;4272624;33;34959;-90
2023/03/30 03:21:21;;;;;;;14.00;9.05;;;;;;;8.12;55.21;99474.28;4272194;33;34298;-85
2023/03/30 03:23:49;;;;;;;14.02;8.98;;;;;;;8.10;55.42;99491.44;4261118;33;34067;-86
2023/03/30 03:26:18;;;;;;;11.95;8.07;;;;;;;8.20;55.15;99479.66;4259068;33;34982;-84
2023/03/30 03:28:46;;;;;;;13.20;8.05;;;;;;;8.23;54.95;99470.28;4272201;33;34460;-84
2023/03/30 03:31:14;;;;;;;11.20;7.65;;;;;;;8.36;54.45;99486.12;4267554;33;33691;-84
2023/03/30 03:33:44;;;;;;;14.87;7.97;;;;;;;8.32;54.23;99482.56;4248365;33;34254;-84
2023/03/30 03:36:12;;;;;;;12.00;7.60;;;;;;;8.45;53.68;99489.00;4259103;33;33454;-84
2023/03/30 03:38:40;;;;;;;10.73;7.20;;;;;;;8.48;53.47;99495.09;4258040;33;33436;-85
2023/03/30 03:41:08;;;;;;;9.02;6.65;;;;;;;8.53;53.29;99488.34;4261542;33;33560;-84
2023/03/30 03:43:36;;;;;;;13.75;8.07;;;;;;;8.23;53.50;99498.72;4257779;33;33492;-84
2023/03/30 03:46:04;;;;;;;10.88;7.20;;;;;;;8.34;53.37;99496.41;4242936;33;33841;-85
2023/03/30 03:48:32;;;;;;;13.48;7.72;;;;;;;8.32;53.08;99485.16;4257571;33;34357;-86
2023/03/30 03:50:59;;;;;;;12.65;7.90;;;;;;;8.29;52.86;99478.19;4235318;33;33645;-87
2023/03/30 03:53:30;;;;;;;13.18;8.02;;;;;;;8.23;52.93;99474.59;4249278;33;34887;-84
2023/03/30 03:55:57;;;;;;;14.98;7.47;;;;;;;8.27;52.80;99469.53;4259254;33;34629;-91
2023/03/30 03:58:26;;;;;;;12.07;7.40;;;;;;;7.97;53.19;99473.88;4272224;33;33748;-83
2023/03/30 04:00:58;;;;;;;11.25;7.40;;;;;;;8.02;53.23;99472.28;4260597;33;34618;-92
2023/03/30 04:03:26;;;;;;;15.13;7.68;;;;;;;8.05;53.33;99464.62;4272731;33;33854;-84
2023/03/30 04:05:53;;;;;;;14.02;8.13;;;;;;;8.10;52.96;99447.53;4246580;33;34218;-85
2023/03/30 04:08:24;;;;;;;12.70;7.65;;;;;;;8.03;53.11;99446.53;4248213;33;33346;-85
2023/03/30 04:10:52;;;;;;;11.50;7.65;;;;;;;8.11;53.13;99446.72;4246836;33;33925;-85
2023/03/30 04:13:20;;;;;;;13.45;7.53;;;;;;;7.96;53.20;99446.31;4246665;33;34093;-86
2023/03/30 04:15:48;;;;;;;14.65;8.45;;;;;;;7.83;54.17;99454.53;4259908;33;33796;-85
2023/03/30 04:18:16;;;;;;;14.82;8.02;;;;;;;7.83;54.39;99447.66;4267937;33;33447;-86
2023/03/30 04:20:45;;;;;;;12.77;8.13;;;;;;;7.95;53.99;99436.78;4257571;33;33093;-88
2023/03/30 04:23:15;;;;;;;13.10;7.95;;;;;;;8.07;53.59;99441.41;4273829;33;35267;-84
2023/03/30 04:25:44;;;;;;;15.60;8.90;;;;;;;8.05;53.46;99447.41;4265540;33;34193;-83
2023/03/30 04:28:13;;;;;;;13.77;8.60;;;;;;;7.87;54.03;99457.22;4264929;33;34622;-84
2023/03/30 04:30:44;;;;;;;17.15;8.80;;;;;;;7.79;54.25;99459.59;4259226;33;34029;-86
2023/03/30 04:33:14;;;;;;;15.23;9.15;;;;;;;7.76;52.25;99456.94;4266956;33;34792;-90
2023/03/30 04:35:42;;;;;;;17.17;9.20;;;;;;;7.25;53.44;99454.56;4270519;33;34511;-85
2023/03/30 04:38:11;;;;;;;13.77;9.30;;;;;;;7.61;53.86;99453.91;4253972;33;33476;-85
2023/03/30 04:40:39;;;;;;;15.50;9.32;;;;;;;7.53;54.42;99455.38;4272569;33;34494;-84
2023/03/30 04:43:08;;;;;;;14.40;9.70;;;;;;;7.72;54.15;99443.91;4242431;33;33925;-84
2023/03/30 04:45:36;;;;;;;15.95;9.10;;;;;;;7.11;54.01;99448.09;4272627;33;34745;-87
2023/03/30 04:48:04;;;;;;;15.00;9.63;;;;;;;7.60;53.56;99441.84;4257286;33;34250;-89
2023/03/30 04:50:35;;;;;;;17.08;9.50;;;;;;;8.00;52.98;99432.66;4250100;33;34753;-90
2023/03/30 04:53:05;;;;;;;14.70;9.80;;;;;;;8.04;53.02;99439.66;4253284;33;33596;-90
2023/03/30 04:55:35;;;;;;;15.60;9.82;;;;;;;8.08;53.38;99431.16;4268138;33;33998;-86
2023/03/30 04:58:02;;;;;;;16.02;10.55;;;;;;;8.34;53.06;99431.84;4271358;33;33921;-86
2023/03/30 05:00:32;;;;;;;20.80;10.63;;;;;;;8.22;52.88;99429.81;4254686;33;33899;-84
2023/03/30 05:03:00;;;;;;;17.05;10.40;;;;;;;8.24;52.43;99432.41;4252884;33;34837;-84
2023/03/30 05:05:28;;;;;;;15.45;10.57;;;;;;;7.92;51.24;99423.81;4272244;33;34304;-90
2023/03/30 05:07:57;;;;;;;16.48;9.38;;;;;;;8.04;50.77;99429.31;4257798;33;33279;-92
2023/03/30 05:10:25;;;;;;;18.77;10.13;;;;;;;8.38;49.68;99432.81;4244696;33;33933;-88
2023/03/30 05:12:54;;;;;;;15.20;9.70;;;;;;;8.04;51.11;99432.78;4245966;33;34495;-87
2023/03/30 05:15:23;;;;;;;15.65;9.73;;;;;;;8.10;50.08;99428.59;4272049;33;33749;-84
2023/03/30 05:17:51;;;;;;;17.30;10.18;;;;;;;8.31;50.94;99433.47;4259188;33;34189;-89
2023/03/30 05:20:19;;;;;;;16.98;10.73;;;;;;;8.11;50.79;99426.06;4263254;33;34165;-84
2023/03/30 05:22:49;;;;;;;19.52;10.38;;;;;;;8.14;51.06;99428.72;4252433;33;33491;-92
2023/03/30 05:25:17;;;;;;;17.37;11.68;;;;;;;8.10;50.58;99433.75;4246854;33;34160;-84
2023/03/30 05:27:45;;;;;;;18.45;10.70;;;;;;;8.05;50.55;99436.22;4261037;33;32981;-84
2023/03/30 05:30:13;;;;;;;24.05;11.30;;;;;;;7.86;50.37;99433.97;4246789;33;32630;-82
2023/03/30 05:32:41;;;;;;;15.73;9.45;;;;;;;7.96;50.30;99436.00;4249728;33;34548;-93
2023/03/30 05:35:10;;;;;;;16.62;9.73;;;;;;;8.02;49.89;99430.97;4268380;33;34060;-90
2023/03/30 05:37:39;;;;;;;17.80;9.88;;;;;;;7.83;50.11;99418.41;4254153;33;34022;-82
2023/03/30 05:40:11;;;;;;;19.23;12.07;;;;;;;7.80;50.29;99430.41;4259573;33;34650;-84
2023/03/30 05:42:39;;;;;;;15.25;10.52;;;;;;;7.96;49.79;99420.50;4234883;33;34095;-83
2023/03/30 05:45:08;;;;;;;17.45;9.95;;;;;;;7.93;50.07;99421.28;4256863;33;34500;-83
2023/03/30 05:47:37;;;;;;;17.90;11.12;;;;;;;7.72;50.02;99418.97;4272082;33;33695;-82
2023/03/30 05:50:06;;;;;;;22.70;10.52;;;;;;;7.91;49.70;99422.94;4273328;33;33601;-84
2023/03/30 05:52:35;;;;;;;18.50;8.63;;;;;;;7.85;50.24;99422.78;4271835;33;33594;-83
2023/03/30 05:55:05;;;;;;;17.65;9.85;;;;;;;7.97;49.51;99442.88;4258668;33;34163;-83
2023/03/30 05:57:35;;;;;;;15.38;9.43;;;;;;;7.42;50.95;99441.31;4273283;33;33592;-95
2023/03/30 06:00:05;;;;;;;14.93;9.05;;;;;;;7.65;50.18;99440.28;4259710;33;33201;-95
2023/03/30 06:02:39;;;;;;;16.12;9.15;;;;;;;7.85;49.77;99434.81;4242813;33;33493;-89
2023/03/30 06:05:08;;;;;;;20.33;9.18;;;;;;;7.73;50.49;99435.34;4245667;33;32729;-81
2023/03/30 06:07:36;;;;;;;16.05;9.32;;;;;;;8.31;49.24;99428.31;4264570;33;33438;-84
2023/03/30 06:10:04;;;;;;;17.50;9.80;;;;;;;7.98;50.56;99429.13;4263017;33;34639;-83
2023/03/30 06:12:34;;;;;;;18.62;10.27;;;;;;;8.41;49.45;99426.03;4247276;33;33963;-84
2023/03/30 06:15:02;;;;;;;13.65;8.55;;;;;;;7.97;50.13;99414.50;4273630;33;33960;-87
2023/03/30 06:17:30;;;;;;;18.50;10.13;;;;;;;8.22;49.86;99411.72;4260287;33;32164;-83
2023/03/30 06:20:07;;;;;;;16.02;9.30;;;;;;;7.99;50.24;99410.22;4273328;33;33822;-92
2023/03/30 06:22:35;;;;;;;18.08;9.95;;;;;;;8.27;50.05;99417.88;4237444;33;34372;-94
2023/03/30 06:25:03;;;;;;;17.60;9.93;;;;;;;7.85;51.04;99409.00;4270606;33;33779;-84
2023/03/30 06:27:31;;;;;;;19.85;10.13;;;;;;;8.10;50.51;99403.62;4246501;33;33472;-87
2023/03/30 06:29:59;;;;;;;17.33;9.85;;;;;;;8.09;50.63;99401.91;4245934;33;33828;-83
2023/03/30 06:32:27;;;;;;;20.08;11.02;;;;;;;7.82;50.93;99402.03;4222831;33;33479;-91
2023/03/30 06:34:56;;;;;;;20.73;10.27;;;;;;;7.86;51.54;99395.25;4234308;33;32305;-83
2023/03/30 06:37:24;;;;;;;18.92;10.48;;;;;;;7.80;51.57;99396.84;4258896;33;33918;-83
2023/03/30 06:39:52;;;;;;;18.98;12.05;;;;;;;8.17;50.84;99396.94;4258954;33;33186;-83
2023/03/30 06:42:19;;;;;;;19.58;11.52;;;;;;;8.10;51.25;99395.03;4258028;33;34260;-83
2023/03/30 06:44:49;;;;;;;19.40;10.90;;;;;;;7.99;51.17;99390.47;4246110;33;34196;-83
2023/03/30 06:47:18;;;;;;;18.45;11.00;;;;;;;7.83;51.74;99396.03;4258455;33;33463;-94
2023/03/30 06:49:47;;;;;;;23.87;11.10;;;;;;;7.96;51.73;99386.94;4245957;33;33875;-89
2023/03/30 06:52:16;;;;;;;20.52;10.93;;;;;;;8.01;51.82;99399.13;4260174;33;33859;-83
2023/03/30 06:54:44;;;;;;;20.42;12.18;;;;;;;8.16;51.40;99398.66;4240040;33;33589;-84
2023/03/30 06:57:12;;;;;;;21.15;11.12;;;;;;;8.19;51.60;99398.72;4272718;33;33545;-83
2023/03/30 06:59:40;;;;;;;24.52;13.20;;;;;;;8.44;50.77;99399.37;4268293;33;33613;-83
2023/03/30 07:02:14;;;;;;;23.38;12.32;;;;;;;8.07;52.30;99407.84;4263525;33;32602;-83
2023/03/30 07:04:45;;;;;;;18.98;11.93;;;;;;;7.69;52.98;99411.16;4272769;33;32466;-83
2023/03/30 07:07:15;;;;;;;23.75;11.35;;;;;;;8.15;52.03;99417.56;4272651;33;33388;-84
2023/03/30 07:09:42;;;;;;;17.77;11.30;;;;;;;8.43;51.63;99424.34;4272963;33;33853;-84
2023/03/30 07:12:10;;;;;;;18.62;12.35;;;;;;;8.32;51.80;99424.88;4272632;33;35116;-84
2023/03/30 07:14:39;;;;;;;19.60;10.70;;;;;;;8.38;51.46;99419.91;4272858;33;33856;-83
2023/03/30 07:17:07;;;;;;;17.20;11.15;;;;;;;8.34;52.15;99412.88;4276333;33;33498;-91
2023/03/30 07:19:35;;;;;;;19.17;11.35;;;;;;;8.16;52.81;99419.31;4275121;33;34669;-83
2023/03/30 07:22:03;;;;;;;22.27;11.90;;;;;;;8.12;52.86;99412.31;4274187;33;33692;-83
2023/03/30 07:24:32;;;;;;;18.92;11.57;;;;;;;8.61;52.08;99417.91;4275170;33;34826;-84
2023/03/30 07:27:01;;;;;;;17.77;10.77;;;;;;;8.57;52.43;99414.37;4275861;33;33706;-83
2023/03/30 07:29:29;;;;;;;17.85;11.48;;;;;;;8.23;53.67;99417.78;4276142;33;33975;-84
2023/03/30 08:28:04;;;;;;;18.07;12.90;;;;;;;10.16;50.70;99381.50;5038795;28;20179;31
2023/03/30 08:30:32;;;;;;;21.95;13.57;;;;;;;10.32;49.93;99392.19;4243543;33;34655;-84
2023/03/30 08:32:59;;;;;;;19.27;11.93;;;;;;;10.56;50.06;99391.72;4245313;33;33804;-85
2023/03/30 08:35:27;;;;;;;19.65;12.55;;;;;;;10.93;48.83;99383.66;4245188;33;34182;-84
2023/03/30 08:37:55;;;;;;;20.52;12.70;;;;;;;11.01;48.11;99378.56;4244284;33;34553;-86
2023/03/30 08:40:23;;;;;;;25.02;13.52;;;;;;;10.57;49.75;99386.56;4245166;33;33913;-85
2023/03/30 08:42:59;;;;;;;19.52;12.02;;;;;;;10.16;51.30;99394.47;4244933;33;33704;-83
2023/03/30 08:45:35;;;;;;;21.77;14.00;;;;;;;10.30;49.95;99393.84;4244481;33;34626;-84
2023/03/30 08:48:11;;;;;;;25.08;14.23;;;;;;;10.30;50.60;99391.25;4244009;33;33637;-84
2023/03/30 08:50:38;;;;;;;22.50;12.30;;;;;;;10.51;49.99;99381.28;4243974;33;33687;-84
2023/03/30 08:53:06;;;;;;;22.52;13.38;;;;;;;10.85;49.09;99384.41;4244059;33;35052;-85
2023/03/30 08:55:50;;;;;;;19.80;12.95;;;;;;;10.74;49.74;99388.53;4245080;33;34067;-84
2023/03/30 08:58:38;;;;;;;23.90;14.20;;;;;;;11.33;48.70;99388.53;4243847;33;33279;-85
2023/03/30 09:01:22;;;;;;;25.15;14.15;;;;;;;11.48;49.46;99385.25;4245086;33;34711;-85
2023/03/30 09:04:13;;;;;;;21.75;14.27;;;;;;;11.09;49.51;99366.56;4245201;33;34273;-84
2023/03/30 09:07:04;;;;;;;25.27;14.65;;;;;;;11.13;49.01;99372.69;4244107;33;33919;-84
2023/03/30 09:09:37;;;;;;;28.83;15.48;;;;;;;11.28;48.67;99372.88;4243852;33;31791;-85
2023/03/30 09:12:11;;;;;;;23.77;15.18;;;;;;;11.26;49.36;99373.75;4243606;33;34667;-84
2023/03/30 09:14:45;;;;;;;24.42;14.35;;;;;;;11.62;48.58;99366.38;4243777;33;34735;-85
2023/03/30 09:17:27;;;;;;;23.27;13.23;;;;;;;12.25;47.55;99374.88;4243748;33;34061;-84
2023/03/30 09:19:59;;;;;;;24.05;13.88;;;;;;;12.32;47.72;99370.63;4245007;33;34515;-85
2023/03/30 09:22:36;;;;;;;20.33;13.82;;;;;;;12.26;46.53;99363.63;4232211;33;34083;-84
2023/03/30 09:25:20;;;;;;;21.05;13.62;;;;;;;12.31;47.41;99358.47;4244832;33;34117;-84
2023/03/30 09:27:55;;;;;;;20.50;13.93;;;;;;;12.34;46.51;99361.09;4249382;33;33875;-84
2023/03/30 09:30:46;;;;;;;20.70;14.07;;;;;;;12.29;47.06;99352.41;4272552;33;33443;-84
2023/03/30 09:33:13;;;;;;;24.83;13.93;;;;;;;12.73;45.82;99349.25;4273370;33;32926;-85
2023/03/30 09:35:43;;;;;;;20.95;12.88;;;;;;;12.66;45.22;99344.03;4273428;33;33939;-84
2023/03/30 09:38:12;;;;;;;30.35;14.93;;;;;;;12.97;45.66;99333.81;4261320;33;34979;-84
2023/03/30 09:41:06;;;;;;;22.27;13.68;;;;;;;11.96;47.21;99337.34;4260440;33;33316;-85
2023/03/30 09:43:43;;;;;;;25.17;13.77;;;;;;;12.60;46.03;99327.50;4247376;33;34433;-84
2023/03/30 09:46:12;;;;;;;25.45;13.73;;;;;;;12.19;46.44;99330.63;4260428;33;34163;-84
2023/03/30 09:48:50;;;;;;;23.45;14.55;;;;;;;12.20;46.71;99323.69;4260586;33;34831;-84
2023/03/30 09:51:20;;;;;;;21.12;13.50;;;;;;;12.11;48.29;99317.56;4272995;33;33663;-84
2023/03/30 09:53:50;;;;;;;24.25;14.13;;;;;;;12.50;47.36;99318.78;4273419;33;34103;-84
2023/03/30 09:56:21;;;;;;;24.65;13.52;;;;;;;12.40;47.45;99309.16;4259694;33;33863;-85
2023/03/30 09:58:49;;;;;;;23.55;13.60;;;;;;;12.69;46.93;99313.69;4260575;33;34027;-84
2023/03/30 10:01:18;;;;;;;22.55;13.23;;;;;;;12.53;47.13;99307.50;4273585;33;33105;-84
2023/03/30 10:04:22;;;;;;;26.25;13.93;;;;;;;12.60;47.20;99302.34;4271864;33;35101;-84
2023/03/30 10:06:50;;;;;;;22.27;14.23;;;;;;;12.32;48.02;99306.50;4242162;33;33943;-85
2023/03/30 10:09:21;;;;;;;24.90;14.30;;;;;;;12.38;48.67;99297.84;4254301;33;35017;-85
2023/03/30 10:11:50;;;;;;;24.87;13.82;;;;;;;12.65;47.84;99300.69;4258506;33;32939;-83
2023/03/30 10:14:28;;;;;;;22.73;14.68;;;;;;;13.07;47.06;99293.97;4272833;33;33652;-84
2023/03/30 10:16:57;;;;;;;24.48;15.20;;;;;;;12.91;47.16;99302.53;4272954;33;34941;-83
2023/03/30 10:19:25;;;;;;;25.30;13.57;;;;;;;12.63;47.51;99304.97;4259905;33;34030;-83
2023/03/30 10:21:57;;;;;;;21.85;13.75;;;;;;;12.78;48.46;99305.94;4272810;33;33697;-84
2023/03/30 10:24:28;;;;;;;20.52;13.35;;;;;;;13.09;46.77;99297.44;4259825;33;34097;-85
2023/03/30 10:27:15;;;;;;;22.45;13.50;;;;;;;13.43;46.32;99287.19;4260229;33;34234;-85
2023/03/30 10:29:45;;;;;;;20.35;13.23;;;;;;;13.40;46.50;99284.56;4272680;33;34776;-84
2023/03/30 10:32:18;;;;;;;20.27;12.37;;;;;;;13.27;46.04;99269.78;4259754;33;34241;-85
2023/03/30 10:34:51;;;;;;;21.12;13.05;;;;;;;13.32;46.73;99273.25;4259839;33;33821;-84
2023/03/30 10:37:40;;;;;;;23.38;13.15;;;;;;;13.65;45.77;99266.41;4260051;33;35456;-84
2023/03/30 10:40:16;;;;;;;21.48;12.52;;;;;;;13.02;47.55;99255.75;4259966;33;33739;-84
2023/03/30 10:42:46;;;;;;;21.30;13.18;;;;;;;12.97;47.31;99265.28;4272744;33;33260;-84
2023/03/30 10:45:18;;;;;;;21.12;12.95;;;;;;;13.06;46.77;99257.50;4259709;33;33928;-85
2023/03/30 10:48:07;;;;;;;21.20;12.15;;;;;;;13.17;47.41;99249.75;4259530;33;34108;-85
2023/03/30 10:50:46;;;;;;;18.37;11.50;;;;;;;13.50;45.92;99244.66;4272667;33;34673;-86
2023/03/30 10:53:31;;;;;;;20.75;12.30;;;;;;;13.88;45.83;99249.06;4252988;33;33652;-85
2023/03/30 10:56:12;;;;;;;21.08;12.70;;;;;;;13.69;45.72;99252.53;4244252;33;33631;-83
2023/03/30 10:58:58;;;;;;;22.37;12.68;;;;;;;13.50;46.28;99239.47;4231332;33;33426;-88
2023/03/30 11:01:41;;;;;;;21.45;11.45;;;;;;;13.57;46.36;99233.41;4244151;33;33881;-84
2023/03/30 11:04:46;;;;;;;16.25;10.05;;;;;;;13.37;47.29;99224.66;4244187;33;33732;-85
2023/03/30 11:07:37;;;;;;;15.40;9.45;;;;;;;13.51;46.43;99232.50;4243129;33;34048;-85
2023/03/30 11:10:13;;;;;;;16.20;10.15;;;;;;;13.49;46.65;99229.06;4255483;33;34211;-85
2023/03/30 11:12:45;;;;;;;16.70;9.45;;;;;;;14.06;45.52;99227.38;4244278;33;34281;-85
2023/03/30 11:15:40;;;;;;;16.60;9.75;;;;;;;14.26;45.32;99236.03;4231429;33;33602;-85
2023/03/30 11:18:08;;;;;;;13.55;8.95;;;;;;;14.31;44.62;99233.41;4247600;33;34050;-85
2023/03/30 11:20:46;;;;;;;15.38;10.00;;;;;;;14.35;44.75;99235.12;4272487;33;35074;-85
2023/03/30 11:23:37;;;;;;;15.57;9.85;;;;;;;14.07;45.74;99223.87;4259502;33;33619;-86
2023/03/30 11:26:16;;;;;;;17.83;9.40;;;;;;;14.21;45.73;99229.09;4259055;33;33574;-83
2023/03/30 11:29:21;;;;;;;14.55;8.57;;;;;;;14.11;45.72;99217.78;4259457;33;33922;-84
2023/03/30 11:32:14;;;;;;;13.70;8.40;;;;;;;14.01;46.23;99219.50;4272405;33;34247;-83
2023/03/30 11:34:54;;;;;;;14.82;9.43;;;;;;;14.37;45.87;99202.13;4259476;33;35724;-84
2023/03/30 11:37:31;;;;;;;16.30;8.75;;;;;;;14.18;46.03;99205.63;4259235;33;33708;-84
2023/03/30 11:40:10;;;;;;;12.27;7.87;;;;;;;14.31;46.01;99202.13;4259804;33;33980;-84
2023/03/30 11:42:38;;;;;;;13.18;7.80;;;;;;;14.86;44.50;99201.13;4259405;33;34250;-82
2023/03/30 11:45:17;;;;;;;16.98;8.80;;;;;;;14.95;44.32;99203.69;4272050;33;33904;-84
2023/03/30 11:48:03;;;;;;;13.27;7.45;;;;;;;15.35;44.62;99208.72;4272285;33;33350;-83
2023/03/30 11:50:37;;;;;;;13.77;8.10;;;;;;;14.97;45.83;99210.66;4272053;33;34060;-83
2023/03/30 11:53:32;;;;;;;13.50;8.05;;;;;;;15.18;45.53;99194.00;4271815;33;35049;-83
2023/03/30 11:56:13;;;;;;;11.40;7.53;;;;;;;15.61;43.92;99180.69;4271984;33;34285;-84
2023/03/30 11:58:45;;;;;;;15.68;8.77;;;;;;;15.48;44.50;99179.88;4272001;33;33731;-83
2023/03/30 12:01:40;;;;;;;12.25;7.43;;;;;;;15.33;44.27;99180.84;4259189;33;34004;-83
2023/03/30 12:04:09;;;;;;;10.65;7.18;;;;;;;15.66;43.94;99165.88;4272095;33;34094;-84
2023/03/30 12:06:39;;;;;;;13.48;7.53;;;;;;;15.70;44.55;99177.16;4271652;33;34619;-84
2023/03/30 12:09:24;;;;;;;12.35;7.62;;;;;;;15.64;43.87;99169.31;4258883;33;33844;-83
2023/03/30 12:12:10;;;;;;;12.23;7.45;;;;;;;15.26;45.07;99167.84;4259032;33;34096;-83
2023/03/30 12:15:03;;;;;;;11.93;7.25;;;;;;;15.37;44.79;99160.81;4259429;33;34100;-83
2023/03/30 12:17:58;;;;;;;14.93;6.82;;;;;;;15.35;45.03;99156.50;4271539;33;34040;-83
2023/03/30 12:20:29;;;;;;;13.40;7.78;;;;;;;15.32;45.61;99154.75;4273576;33;33153;-83
2023/03/30 12:23:18;;;;;;;13.73;7.75;;;;;;;15.33;44.96;99133.84;4273515;33;33726;-83
2023/03/30 12:25:45;;;;;;;12.95;7.05;;;;;;;15.24;45.65;99122.59;4273646;33;34172;-84
2023/03/30 12:28:14;;;;;;;11.23;7.05;;;;;;;15.59;45.19;99122.31;4273746;33;34272;-83
2023/03/30 12:30:56;;;;;;;10.65;7.28;;;;;;;15.69;45.63;99113.56;4273671;33;33997;-84
2023/03/30 12:33:48;;;;;;;11.68;7.40;;;;;;;15.54;46.08;99121.50;4260507;33;33649;-83
2023/03/30 12:36:36;;;;;;;10.70;7.22;;;;;;;15.96;44.48;99114.19;4273494;33;34294;-83
2023/03/30 12:39:11;;;;;;;11.05;7.20;;;;;;;16.04;43.73;99115.84;4260788;33;35040;-83
2023/03/30 12:41:49;;;;;;;12.20;7.12;;;;;;;15.91;45.08;99110.75;4273724;33;33506;-83
2023/03/30 12:44:54;;;;;;;12.00;7.62;;;;;;;16.03;44.17;99103.66;4273591;33;33964;-81
2023/03/30 12:47:32;;;;;;;13.18;7.70;;;;;;;15.73;45.15;99098.72;4273915;33;34176;-83
2023/03/30 12:50:12;;;;;;;13.20;6.80;;;;;;;15.48;45.61;99104.13;4273470;33;33712;-84
2023/03/30 12:53:12;;;;;;;13.95;7.35;;;;;;;15.98;44.50;99092.34;4260618;33;33485;-83
2023/03/30 12:55:51;;;;;;;17.52;7.97;;;;;;;16.26;44.30;99089.47;4260511;33;33672;-84